world map with BJZ marked

BJZ - Airport

This information may not be accurate or current and is not valid for navigation or flight planning. No warranty of fitness for any purpose is made or implied.

flag of Extremaduraflag of Spain

Donate via PayPal

Additional information is available on the NEW Great Circle Mapper

Location
City:  Badajoz, Extremadura, Spain
Name:Talavera La Real
ICAO / IATA:LEBZ / BJZ

Details
Type:Airport (Aerodrome, Airfield)
Use:Public/Civil, Military
Latitude:38°53'28"N (38.891250)
Longitude:6°49'17"W (-6.821332)
Datum:WGS 1984
Elevation:609 ft (186 m)
Runways:1
Longest:9350 × 197 ft (2850 × 60 m)

Time
Timezone:UTC+1 (DST+4)
Local Time:

Weather
METAR:LEBZ  041400Z 01002KT CAVOK 12/01 Q1029
TAF:LEBZ  041100Z 0412/0512 05005KT CAVOK TX12/0416Z TN02/0507Z= TAF LESA 041100Z 0412/0512 VRB04KT CAVOK TX11/0415Z TNM04/0507Z PROB30 TEMPO 0503/0508 4000 BR NSC

Related Locations
Nearby:
Farthest:NZJQ: 12392 mi / 19943 km
Taranaki Base [Hospital Heliport], TKI, NZ

Find:

   beyond  
but within

Other Information
Maps:
Sources:

  


 


Great Circle Mapper   Great Circle Mapper
Great Circle Mapper FAQ   Great Circle Mapper FAQ
  Karl's Home Page
KLSē   KLSē Home
   GC on Facebook
Airlines of the World   Airlines of the World
Donate via PayPal


Copyright © 2004-2020, Karl L. Swartz. All rights reserved.
All trademarks mentioned herein belong to their respective owners.

Please see credits for attribution and copyright information.

Karl Swartz <karl@kls2.com>
  Powered by FreeBSD
Valid HTML 4.01!
Labeled with ICRA
hCard Microformat
Geo Microformat